createdAt,value
2022-11-26T00:01:14.610Z,30.77
2022-11-26T00:03:42.353Z,33.87
2022-11-26T00:06:38.458Z,30.03
2022-11-26T00:09:11.841Z,30.47
2022-11-26T00:11:39.295Z,29.70
2022-11-26T00:14:15.639Z,30.37
2022-11-26T00:16:43.730Z,31.83
2022-11-26T00:19:11.201Z,32.17
2022-11-26T00:21:40.554Z,35.03
2022-11-26T00:24:27.808Z,31.63
2022-11-26T00:26:56.850Z,32.37
2022-11-26T00:29:24.277Z,32.30
2022-11-26T00:31:51.743Z,33.03
2022-11-26T00:34:19.219Z,33.27
2022-11-26T00:36:47.078Z,32.50
2022-11-26T00:39:19.714Z,31.20
2022-11-26T00:41:51.276Z,30.67
2022-11-26T00:44:20.860Z,29.47
2022-11-26T00:46:48.542Z,33.87
2022-11-26T00:49:16.653Z,31.60
2022-11-26T00:51:44.302Z,33.07
2022-11-26T00:54:15.205Z,33.80
2022-11-26T00:56:42.620Z,30.57
2022-11-26T00:59:14.726Z,31.17
2022-11-26T01:01:42.170Z,32.17
2022-11-26T01:04:09.458Z,32.13
2022-11-26T01:06:42.819Z,31.20
2022-11-26T01:09:21.654Z,32.27
2022-11-26T01:11:53.720Z,31.10
2022-11-26T01:14:24.656Z,30.50
2022-11-26T01:16:54.979Z,31.70
2022-11-26T01:19:22.478Z,30.93
2022-11-26T01:21:49.869Z,28.27
2022-11-26T01:24:17.291Z,30.27
2022-11-26T01:26:45.576Z,30.90
2022-11-26T01:29:17.461Z,30.77
2022-11-26T01:31:45.062Z,31.23
2022-11-26T01:34:12.794Z,31.43
2022-11-26T01:36:40.991Z,31.80
2022-11-26T01:39:15.698Z,34.10
2022-11-26T01:41:49.278Z,32.23
2022-11-26T01:44:19.558Z,32.57
2022-11-26T01:46:49.815Z,29.83
2022-11-26T01:49:17.586Z,30.37
2022-11-26T01:51:45.762Z,30.47
2022-11-26T01:54:13.691Z,31.73
2022-11-26T01:56:50.827Z,33.23
2022-11-26T01:59:20.636Z,32.47
2022-11-26T02:01:49.738Z,31.40
2022-11-26T02:04:19.201Z,33.40
2022-11-26T02:06:48.728Z,32.73
2022-11-26T02:09:16.547Z,30.23
2022-11-26T02:11:44.321Z,33.50
2022-11-26T02:14:14.470Z,33.50
2022-11-26T02:16:58.367Z,33.47
2022-11-26T02:19:28.632Z,30.43
2022-11-26T02:22:06.730Z,30.47
2022-11-26T02:24:40.332Z,31.83
2022-11-26T02:27:26.725Z,30.17
2022-11-26T02:30:00.713Z,30.53
2022-11-26T02:32:34.905Z,30.23
2022-11-26T02:35:06.188Z,30.27
2022-11-26T02:37:40.413Z,30.83
2022-11-26T02:40:08.870Z,30.33
2022-11-26T02:42:36.929Z,31.73
2022-11-26T02:45:10.509Z,29.40
2022-11-26T02:47:39.408Z,29.47
2022-11-26T02:50:09.219Z,28.93
2022-11-26T02:52:37.914Z,26.57
2022-11-26T02:55:07.608Z,31.40
2022-11-26T02:57:37.670Z,31.20
2022-11-26T03:00:06.403Z,29.77
2022-11-26T03:02:37.269Z,33.30
2022-11-26T03:05:05.475Z,31.20
2022-11-26T03:07:33.194Z,30.60
2022-11-26T03:10:02.811Z,31.40
2022-11-26T03:12:30.595Z,31.50
2022-11-26T03:14:58.025Z,30.13
2022-11-26T03:17:25.412Z,30.60
2022-11-26T03:19:52.973Z,30.57
2022-11-26T03:22:20.370Z,31.80
2022-11-26T03:24:47.891Z,31.00
2022-11-26T03:27:15.248Z,29.00
2022-11-26T03:29:42.613Z,28.90
2022-11-26T03:32:09.970Z,31.57
2022-11-26T03:34:37.532Z,29.23
2022-11-26T03:37:05.064Z,30.00
2022-11-26T03:39:32.413Z,31.57
2022-11-26T03:41:59.788Z,31.00
2022-11-26T03:44:27.174Z,30.10
2022-11-26T03:46:54.635Z,30.93
2022-11-26T03:49:22.058Z,31.47
2022-11-26T03:51:49.583Z,28.90
2022-11-26T03:54:16.996Z,29.03
2022-11-26T03:56:44.340Z,28.10
2022-11-26T03:59:11.813Z,28.97
2022-11-26T04:01:39.285Z,28.80
2022-11-26T04:04:06.664Z,28.23
2022-11-26T04:06:33.984Z,29.13
2022-11-26T04:09:01.442Z,28.83
2022-11-26T04:11:28.784Z,31.03
2022-11-26T04:13:56.094Z,27.90
2022-11-26T04:16:23.478Z,29.77
2022-11-26T04:18:50.808Z,28.63
2022-11-26T04:21:18.178Z,28.13
2022-11-26T04:23:45.520Z,29.47
2022-11-26T04:26:12.915Z,26.77
2022-11-26T04:28:40.386Z,25.50
2022-11-26T04:31:07.805Z,26.20
2022-11-26T04:33:35.270Z,26.03
2022-11-26T04:36:02.875Z,25.47
2022-11-26T04:38:30.524Z,24.93
2022-11-26T04:40:57.885Z,24.27
2022-11-26T04:43:25.230Z,25.27
2022-11-26T04:45:52.664Z,24.83
2022-11-26T04:48:20.169Z,24.63
2022-11-26T04:50:47.729Z,26.03
2022-11-26T04:53:15.898Z,25.53
2022-11-26T04:55:43.320Z,26.00
2022-11-26T04:58:10.657Z,25.57
2022-11-26T05:00:39.367Z,26.00
2022-11-26T05:03:07.644Z,25.83
2022-11-26T05:05:35.251Z,26.40
2022-11-26T05:08:02.678Z,25.13
2022-11-26T05:10:30.054Z,23.27
2022-11-26T05:12:57.400Z,24.20
2022-11-26T05:15:24.761Z,23.03
2022-11-26T05:17:52.133Z,25.23
2022-11-26T05:20:19.753Z,26.07
2022-11-26T05:22:47.179Z,23.90
2022-11-26T05:25:14.664Z,26.17
2022-11-26T05:27:42.067Z,26.67
2022-11-26T05:30:09.728Z,25.20
2022-11-26T05:32:37.131Z,26.73
2022-11-26T05:35:04.790Z,27.80
2022-11-26T05:37:32.153Z,26.10
2022-11-26T05:39:59.539Z,26.80
2022-11-26T05:42:26.919Z,26.27
2022-11-26T05:44:54.307Z,26.53
2022-11-26T05:47:21.668Z,26.20
2022-11-26T05:49:49.080Z,26.83
2022-11-26T05:52:16.495Z,28.77
2022-11-26T05:54:43.923Z,26.20
2022-11-26T05:57:11.248Z,25.90
2022-11-26T05:59:38.596Z,28.58
2022-11-26T06:02:09.459Z,29.03
2022-11-26T06:04:37.513Z,28.70
2022-11-26T06:07:05.117Z,26.97
2022-11-26T06:09:32.820Z,29.47
2022-11-26T06:12:01.148Z,30.03
2022-11-26T06:14:28.555Z,28.70
2022-11-26T06:16:55.987Z,27.17
2022-11-26T06:19:23.369Z,30.43
2022-11-26T06:21:50.931Z,37.38
2022-11-26T06:24:18.296Z,31.77
2022-11-26T06:26:45.643Z,29.87
2022-11-26T06:29:13.213Z,32.97
2022-11-26T06:31:40.657Z,31.57
2022-11-26T06:34:08.040Z,30.10
2022-11-26T06:36:35.404Z,29.43
2022-11-26T06:39:02.735Z,30.73
2022-11-26T06:41:30.106Z,30.43
2022-11-26T06:43:59.109Z,31.33
2022-11-26T06:46:26.663Z,31.60
2022-11-26T06:48:54.018Z,32.83
2022-11-26T06:51:21.994Z,32.13
2022-11-26T06:53:49.823Z,32.57
2022-11-26T06:56:19.090Z,32.20
2022-11-26T06:58:47.351Z,32.87
2022-11-26T07:01:19.303Z,28.63
2022-11-26T07:03:46.955Z,29.23
2022-11-26T07:06:20.355Z,32.10
2022-11-26T07:08:48.221Z,32.33
2022-11-26T07:11:15.824Z,29.13
2022-11-26T07:13:43.319Z,30.00
2022-11-26T07:16:11.225Z,32.53
2022-11-26T07:18:38.623Z,32.37
2022-11-26T07:21:07.116Z,31.97
2022-11-26T07:23:34.495Z,33.00
2022-11-26T07:26:02.289Z,30.90
2022-11-26T07:28:30.322Z,31.43
2022-11-26T07:31:14.510Z,31.77
2022-11-26T07:33:43.727Z,34.30
2022-11-26T07:36:14.481Z,34.50
2022-11-26T07:38:41.953Z,34.07
2022-11-26T07:41:10.684Z,35.73
2022-11-26T07:43:38.906Z,35.33
2022-11-26T07:46:07.469Z,31.83
2022-11-26T07:48:35.277Z,36.83
2022-11-26T07:51:02.990Z,35.70
2022-11-26T07:53:31.209Z,34.20
2022-11-26T07:55:58.917Z,34.77
2022-11-26T07:58:29.521Z,34.90
2022-11-26T08:00:56.889Z,36.80
2022-11-26T08:03:24.272Z,39.17
2022-11-26T08:05:51.657Z,37.87
2022-11-26T08:08:19.024Z,39.07
2022-11-26T08:10:46.400Z,40.03
2022-11-26T08:13:13.763Z,39.27
2022-11-26T08:15:41.129Z,40.63
2022-11-26T08:18:08.762Z,40.53
2022-11-26T08:20:36.138Z,41.43
2022-11-26T08:23:03.465Z,42.63
2022-11-26T08:25:30.861Z,43.53
2022-11-26T08:27:58.309Z,43.07
2022-11-26T08:30:25.725Z,47.60
2022-11-26T08:32:53.077Z,43.80
2022-11-26T08:35:20.420Z,42.53
2022-11-26T08:37:47.763Z,44.23
2022-11-26T08:40:15.129Z,42.17
2022-11-26T08:42:42.484Z,41.47
2022-11-26T08:45:10.009Z,42.70
2022-11-26T08:47:37.403Z,41.37
2022-11-26T08:50:05.114Z,40.20
2022-11-26T08:52:32.471Z,39.60
2022-11-26T08:54:59.802Z,41.73
2022-11-26T08:57:27.167Z,38.43
2022-11-26T08:59:55.952Z,39.13
2022-11-26T09:02:23.716Z,37.77
2022-11-26T09:04:51.057Z,39.93
2022-11-26T09:07:18.522Z,39.67
2022-11-26T09:09:45.963Z,33.03
2022-11-26T09:12:13.329Z,38.67
2022-11-26T09:14:41.387Z,37.40
2022-11-26T09:17:10.017Z,39.73
2022-11-26T09:19:37.430Z,39.53
2022-11-26T09:22:05.120Z,37.87
2022-11-26T09:24:32.507Z,40.07
2022-11-26T09:27:04.279Z,36.50
2022-11-26T09:29:34.793Z,39.37
2022-11-26T09:32:22.648Z,36.87
2022-11-26T09:34:49.577Z,37.50
2022-11-26T09:37:16.954Z,34.90
2022-11-26T09:39:44.302Z,36.47
2022-11-26T09:42:33.994Z,34.23
2022-11-26T09:45:19.947Z,36.43
2022-11-26T09:47:49.404Z,34.27
2022-11-26T09:50:17.307Z,37.10
2022-11-26T09:53:02.249Z,36.13
2022-11-26T09:55:34.407Z,34.93
2022-11-26T09:58:04.674Z,36.00
2022-11-26T10:00:34.512Z,32.83
2022-11-26T10:03:01.953Z,36.90
2022-11-26T10:05:34.967Z,35.20
2022-11-26T10:08:13.039Z,36.83
2022-11-26T10:10:54.508Z,36.90
2022-11-26T10:13:39.137Z,34.33
2022-11-26T10:16:11.984Z,35.57
2022-11-26T10:18:45.659Z,37.80
2022-11-26T10:21:13.574Z,37.60
2022-11-26T10:23:45.385Z,34.07
2022-11-26T10:26:15.697Z,31.03
2022-11-26T10:28:47.608Z,31.13
2022-11-26T10:31:28.712Z,28.43
2022-11-26T10:33:57.569Z,28.87
2022-11-26T10:36:32.913Z,32.07
2022-11-26T10:39:00.312Z,33.10
2022-11-26T10:41:30.481Z,33.47
2022-11-26T10:44:17.775Z,32.77
2022-11-26T10:46:45.227Z,28.97
2022-11-26T10:49:17.003Z,29.50
2022-11-26T10:51:48.017Z,28.17
2022-11-26T10:54:24.054Z,27.17
2022-11-26T10:56:55.314Z,25.00
2022-11-26T10:59:25.765Z,26.00
2022-11-26T11:01:56.313Z,29.40
2022-11-26T11:04:30.768Z,26.47
2022-11-26T11:06:58.406Z,26.03
2022-11-26T11:09:31.689Z,26.07
2022-11-26T11:12:18.531Z,24.00
2022-11-26T11:14:46.908Z,24.80
2022-11-26T11:17:26.523Z,24.33
2022-11-26T11:19:53.999Z,21.63
2022-11-26T11:22:22.351Z,19.67
2022-11-26T11:24:49.759Z,22.17
2022-11-26T11:27:24.398Z,20.90
2022-11-26T11:29:52.175Z,20.30
2022-11-26T11:32:31.630Z,21.27
2022-11-26T11:35:12.662Z,19.33
2022-11-26T11:37:50.243Z,17.60
2022-11-26T11:40:23.400Z,18.63
2022-11-26T11:42:51.880Z,18.07
2022-11-26T11:45:25.546Z,18.63
2022-11-26T11:47:57.010Z,19.60
2022-11-26T11:50:34.692Z,18.13
2022-11-26T11:53:10.974Z,18.97
2022-11-26T11:55:41.327Z,17.30
2022-11-26T11:58:25.671Z,15.23
2022-11-26T12:00:56.949Z,16.33
2022-11-26T12:03:43.848Z,18.10
2022-11-26T12:06:30.184Z,16.77
2022-11-26T12:09:08.825Z,16.10
2022-11-26T12:11:48.341Z,17.47
2022-11-26T12:14:21.649Z,17.87
2022-11-26T12:16:51.742Z,17.77
2022-11-26T12:19:27.919Z,17.43
2022-11-26T12:22:02.776Z,20.67
2022-11-26T12:24:38.967Z,15.90
2022-11-26T12:27:11.379Z,16.67
2022-11-26T12:29:43.487Z,18.10
2022-11-26T12:32:10.870Z,16.13
2022-11-26T12:34:44.077Z,16.20
2022-11-26T12:37:20.075Z,16.70
2022-11-26T12:40:06.256Z,15.70
2022-11-26T12:42:45.297Z,17.67
2022-11-26T12:45:23.273Z,16.97
2022-11-26T12:47:55.812Z,16.93
2022-11-26T12:50:41.470Z,16.07
2022-11-26T12:53:08.836Z,17.57
2022-11-26T12:56:05.897Z,15.50
2022-11-26T12:58:44.015Z,15.47
2022-11-26T13:01:12.334Z,15.87
2022-11-26T13:03:40.883Z,17.00
2022-11-26T13:06:17.059Z,15.87
2022-11-26T13:08:49.557Z,14.90
2022-11-26T13:11:27.136Z,15.53
2022-11-26T13:14:03.880Z,14.90
2022-11-26T13:16:35.571Z,14.70
2022-11-26T13:19:07.058Z,14.67
2022-11-26T13:21:34.474Z,13.17
2022-11-26T13:24:13.581Z,14.17
2022-11-26T13:26:50.636Z,14.73
2022-11-26T13:29:17.984Z,13.77
2022-11-26T13:32:09.839Z,14.53
2022-11-26T13:35:06.061Z,13.77
2022-11-26T13:37:51.737Z,13.37
2022-11-26T13:40:59.029Z,14.13
2022-11-26T13:43:49.602Z,14.80
2022-11-26T13:46:22.616Z,13.83
2022-11-26T13:48:53.176Z,16.03
2022-11-26T13:51:39.512Z,15.17
2022-11-26T13:54:32.876Z,13.80
2022-11-26T13:57:02.154Z,14.83
2022-11-26T13:59:30.574Z,14.10
2022-11-26T14:01:58.140Z,15.17
2022-11-26T14:04:25.541Z,13.60
2022-11-26T14:07:04.928Z,13.70
2022-11-26T14:09:44.801Z,14.63
2022-11-26T14:12:16.193Z,14.27
2022-11-26T14:14:45.998Z,14.67
2022-11-26T14:17:13.319Z,13.40
2022-11-26T14:19:40.701Z,14.67
2022-11-26T14:22:09.572Z,14.27
2022-11-26T14:24:56.754Z,15.03
2022-11-26T14:27:24.159Z,14.87
2022-11-26T14:29:55.828Z,13.60
2022-11-26T14:32:24.137Z,13.47
2022-11-26T14:34:52.725Z,13.77
2022-11-26T14:37:21.798Z,13.97
2022-11-26T14:39:59.717Z,15.03
2022-11-26T14:42:27.717Z,14.43
2022-11-26T14:45:16.507Z,16.73
2022-11-26T14:47:45.096Z,13.50
2022-11-26T14:50:14.503Z,12.87
2022-11-26T14:52:43.127Z,14.13
2022-11-26T14:55:19.458Z,14.80
2022-11-26T14:57:48.463Z,12.13
2022-11-26T15:00:15.775Z,13.50
2022-11-26T15:02:45.657Z,13.47
2022-11-26T15:05:18.019Z,13.33
2022-11-26T15:07:46.155Z,12.97
2022-11-26T15:10:16.323Z,13.53
2022-11-26T15:12:44.708Z,11.97
2022-11-26T15:15:31.160Z,13.00
2022-11-26T15:18:02.003Z,12.10
2022-11-26T15:20:29.559Z,11.70
2022-11-26T15:22:58.684Z,13.93
2022-11-26T15:25:27.858Z,12.27
2022-11-26T15:27:59.069Z,11.33
2022-11-26T15:30:30.888Z,12.43
2022-11-26T15:32:59.775Z,11.00
2022-11-26T15:35:27.263Z,12.53
2022-11-26T15:37:54.734Z,11.17
2022-11-26T15:40:22.359Z,10.57
2022-11-26T15:42:51.001Z,11.90
2022-11-26T15:45:20.942Z,10.30
2022-11-26T15:47:53.731Z,10.53
2022-11-26T15:50:27.491Z,11.07
2022-11-26T15:53:05.888Z,10.53
2022-11-26T15:55:35.823Z,11.27
2022-11-26T15:58:06.019Z,10.87
2022-11-26T16:00:38.223Z,11.27
2022-11-26T16:03:26.682Z,10.47
2022-11-26T16:05:56.028Z,9.50
2022-11-26T16:08:27.585Z,10.33
2022-11-26T16:10:59.300Z,10.10
2022-11-26T16:13:30.608Z,9.53
2022-11-26T16:15:57.972Z,9.70
2022-11-26T16:18:29.045Z,13.53
2022-11-26T16:21:08.067Z,10.07
2022-11-26T16:23:35.503Z,9.87
2022-11-26T16:26:10.828Z,9.40
2022-11-26T16:28:38.560Z,9.37
2022-11-26T16:31:06.106Z,10.67
2022-11-26T16:33:33.529Z,10.07
2022-11-26T16:36:01.182Z,9.63
2022-11-26T16:38:29.359Z,8.40
2022-11-26T16:40:57.066Z,7.93
2022-11-26T16:43:24.486Z,9.37
2022-11-26T16:45:55.001Z,9.50
2022-11-26T16:48:26.567Z,21.23
2022-11-26T16:50:54.679Z,9.97
2022-11-26T16:53:22.641Z,8.87
2022-11-26T16:55:50.523Z,8.20
2022-11-26T16:58:24.064Z,6.70
2022-11-26T17:00:51.563Z,7.50
2022-11-26T17:03:19.132Z,8.27
2022-11-26T17:05:46.740Z,7.40
2022-11-26T17:08:14.463Z,7.07
2022-11-26T17:10:41.807Z,7.77
2022-11-26T17:13:09.208Z,8.20
2022-11-26T17:15:36.623Z,7.67
2022-11-26T17:18:06.411Z,8.27
2022-11-26T17:20:33.854Z,7.57
2022-11-26T17:23:01.231Z,10.03
2022-11-26T17:25:28.598Z,8.23
2022-11-26T17:27:56.448Z,7.47
2022-11-26T17:30:24.766Z,7.93
2022-11-26T17:32:52.425Z,9.43
2022-11-26T17:35:19.811Z,8.40
2022-11-26T17:37:47.389Z,7.93
2022-11-26T17:40:19.073Z,7.50
2022-11-26T17:42:46.973Z,7.40
2022-11-26T17:45:14.511Z,7.10
2022-11-26T17:47:41.883Z,7.00
2022-11-26T17:50:15.890Z,7.77
2022-11-26T17:52:43.247Z,7.53
2022-11-26T17:55:10.992Z,8.20
2022-11-26T17:57:38.393Z,6.83
2022-11-26T18:00:07.689Z,6.83
2022-11-26T18:02:36.147Z,6.83
2022-11-26T18:05:03.603Z,6.97
2022-11-26T18:07:30.982Z,6.10
2022-11-26T18:09:58.415Z,6.33
2022-11-26T18:12:27.767Z,9.00
2022-11-26T18:14:57.337Z,7.13
2022-11-26T18:17:25.157Z,7.57
2022-11-26T18:19:52.565Z,9.40
2022-11-26T18:22:21.777Z,7.07
2022-11-26T18:24:57.275Z,6.57
2022-11-26T18:27:26.349Z,6.37
2022-11-26T18:29:53.849Z,7.00
2022-11-26T18:32:21.277Z,7.67
2022-11-26T18:34:51.586Z,6.67
2022-11-26T18:37:19.129Z,6.97
2022-11-26T18:39:46.578Z,7.77
2022-11-26T18:42:36.941Z,6.57
2022-11-26T18:45:01.764Z,6.67
2022-11-26T18:47:29.196Z,7.13
2022-11-26T18:49:56.573Z,6.17
2022-11-26T18:52:23.963Z,8.47
2022-11-26T18:54:51.416Z,6.63
2022-11-26T18:57:18.786Z,7.27
2022-11-26T18:59:46.755Z,6.40
2022-11-26T19:02:14.265Z,7.03
2022-11-26T19:04:41.729Z,7.57
2022-11-26T19:07:09.717Z,8.63
2022-11-26T19:09:37.877Z,9.17
2022-11-26T19:12:05.635Z,7.00
2022-11-26T19:14:33.008Z,6.90
2022-11-26T19:17:00.701Z,6.17
2022-11-26T19:19:28.344Z,6.50
2022-11-26T19:22:00.889Z,6.60
2022-11-26T19:24:29.557Z,6.60
2022-11-26T19:26:57.538Z,6.27
2022-11-26T19:29:25.091Z,5.60
2022-11-26T19:31:53.590Z,6.70
2022-11-26T19:34:21.114Z,6.97
2022-11-26T19:36:49.172Z,5.70
2022-11-26T19:39:17.320Z,6.57
2022-11-26T19:41:45.174Z,6.67
2022-11-26T19:44:12.772Z,6.97
2022-11-26T19:46:41.380Z,6.43
2022-11-26T19:49:11.803Z,5.97
2022-11-26T19:51:39.329Z,8.03
2022-11-26T19:54:07.146Z,11.00
2022-11-26T19:56:34.967Z,7.27
2022-11-26T19:59:02.862Z,6.80
2022-11-26T20:01:32.163Z,6.20
2022-11-26T20:04:01.067Z,6.10
2022-11-26T20:06:29.987Z,6.33
2022-11-26T20:09:00.728Z,6.57
2022-11-26T20:11:29.411Z,6.47
2022-11-26T20:13:57.512Z,7.20
2022-11-26T20:16:26.365Z,6.43
2022-11-26T20:18:53.907Z,7.17
2022-11-26T20:21:25.518Z,6.73
2022-11-26T20:23:53.779Z,6.60
2022-11-26T20:26:21.930Z,6.30
2022-11-26T20:28:49.947Z,6.73
2022-11-26T20:31:23.013Z,7.50
2022-11-26T20:33:52.771Z,6.10
2022-11-26T20:36:22.832Z,7.30
2022-11-26T20:38:54.518Z,6.90
2022-11-26T20:41:22.532Z,6.83
2022-11-26T20:43:54.934Z,6.53
2022-11-26T20:46:26.278Z,7.00
2022-11-26T20:48:53.804Z,7.50
2022-11-26T20:51:22.372Z,7.67
2022-11-26T20:53:50.856Z,7.97
2022-11-26T20:56:22.027Z,7.20
2022-11-26T20:58:50.045Z,7.30
2022-11-26T21:01:18.505Z,7.40
2022-11-26T21:03:45.965Z,7.13
2022-11-26T21:06:14.222Z,7.30
2022-11-26T21:08:42.068Z,6.90
2022-11-26T21:11:09.807Z,7.43
2022-11-26T21:13:38.452Z,7.57
2022-11-26T21:16:22.808Z,8.23
2022-11-26T21:18:50.175Z,9.20
2022-11-26T21:21:17.859Z,9.60
2022-11-26T21:23:45.866Z,8.67
2022-11-26T21:26:16.368Z,9.63
2022-11-26T21:28:43.903Z,9.60
2022-11-26T21:31:14.051Z,9.13
2022-11-26T21:33:41.454Z,10.63
2022-11-26T21:36:10.310Z,10.53
2022-11-26T21:38:37.849Z,9.00
2022-11-26T21:41:12.677Z,9.10
2022-11-26T21:43:41.156Z,10.00
2022-11-26T21:46:09.629Z,10.33
2022-11-26T21:48:37.124Z,12.13
2022-11-26T21:51:08.493Z,13.17
2022-11-26T21:53:36.147Z,10.80
2022-11-26T21:56:11.000Z,10.73
2022-11-26T21:58:38.339Z,11.53
2022-11-26T22:01:22.719Z,11.07
2022-11-26T22:03:51.479Z,12.17
2022-11-26T22:06:20.034Z,11.83
2022-11-26T22:08:47.751Z,12.27
2022-11-26T22:11:16.720Z,12.87
2022-11-26T22:13:44.502Z,12.80
2022-11-26T22:16:12.835Z,14.97
2022-11-26T22:18:41.408Z,12.50
2022-11-26T22:21:11.579Z,12.60
2022-11-26T22:23:39.054Z,14.93
2022-11-26T22:26:06.883Z,15.27
2022-11-26T22:28:35.056Z,14.57
2022-11-26T22:31:09.340Z,12.87
2022-11-26T22:33:36.966Z,14.00
2022-11-26T22:36:04.445Z,14.77
2022-11-26T22:38:33.131Z,13.87
2022-11-26T22:41:08.320Z,13.53
2022-11-26T22:43:35.716Z,13.10
2022-11-26T22:46:04.281Z,14.97
2022-11-26T22:48:31.761Z,17.23
2022-11-26T22:50:59.064Z,15.87
2022-11-26T22:53:26.482Z,15.60
2022-11-26T22:55:54.884Z,16.37
2022-11-26T22:58:22.901Z,15.47
2022-11-26T23:00:51.489Z,15.50
2022-11-26T23:03:20.326Z,15.70
2022-11-26T23:05:47.811Z,17.83
2022-11-26T23:08:18.919Z,16.67
2022-11-26T23:10:46.260Z,20.83
2022-11-26T23:13:13.959Z,22.37
2022-11-26T23:15:44.676Z,21.63
2022-11-26T23:18:13.064Z,23.20
2022-11-26T23:20:41.039Z,23.70
2022-11-26T23:23:08.616Z,22.97
2022-11-26T23:25:42.086Z,24.87
2022-11-26T23:28:09.583Z,27.03
2022-11-26T23:30:37.033Z,23.37
2022-11-26T23:33:04.500Z,31.17
2022-11-26T23:35:31.855Z,24.60
2022-11-26T23:37:59.136Z,25.47
2022-11-26T23:40:26.470Z,25.87
2022-11-26T23:42:53.793Z,25.90
2022-11-26T23:45:21.120Z,25.60
2022-11-26T23:47:48.412Z,25.83
2022-11-26T23:50:15.722Z,24.37
2022-11-26T23:52:42.993Z,26.03
2022-11-26T23:55:10.388Z,26.70
2022-11-26T23:57:37.695Z,25.93
